الصفحة الرئيسية
METAR-TAF:

METAR-TAF

مطار :

Phoenix Goodyear Airport

Goodyear, أريزونا, الولايات المتحدة

دائرة عرض: 33-25N, خط طول: 112-23W, ارتفاع: 295 متر

مراقبة الطقس الحالي

تاريخ ووقت الإصدار 4ساعات و 23 دقيقة قبل الساعة 03:47UTC
ريح 4 عقدة من الجنوب/الجنوب الغربي
درجة الحرارة 18°درجة مئوية
الرطوبة 37%
ضغط 1012 hPa
الرؤية: 16.1 كم
غيوم متفرقة على ارتفاع 8000 قدم
غيوم مفككة على ارتفاع 12000 قدم
ملبد بالغيوم على ارتفاع 18000 قدم

METAR: KGYR 210347Z 21004KT 10SM SCT080 BKN120 OVC180 18/03 A2989 RMK LAST

زمن: 01:10 (08:10 UTC)


TAF: مفقودة

أرصاد الطقس والتوقعات من أكثر من 4000 مطار (تقارير الطقس للمطار METAR والتنبؤ بالطقس بالمطارTAF).

المحطات المتاحة هي النقط الصفراء والحمراء على الخريطة.

حرك المؤشر فوق النقطة لمعرفة اسم المحطة.

ثم انقر لمعرفة أرصاد وتوقعات الطقس.

لتغيير الخارطة: اضغط على الأزرار الخضراء مع رمز الصليب الأسود للتكبير. على الزر الأخضر مع شرطة للتصغير، أو على الأسهم الخضراء للخرائط المجاورة.


METAR-TAF: